createdAt,value
2018-09-21T00:02:26.082Z,99.90
2018-09-21T00:05:02.321Z,99.90
2018-09-21T00:07:31.794Z,99.90
2018-09-21T00:10:02.152Z,99.90
2018-09-21T00:12:31.624Z,99.90
2018-09-21T00:15:01.153Z,99.90
2018-09-21T00:17:30.619Z,99.90
2018-09-21T00:20:00.157Z,99.90
2018-09-21T00:22:29.669Z,99.90
2018-09-21T00:24:59.195Z,99.90
2018-09-21T00:27:28.691Z,99.90
2018-09-21T00:29:58.177Z,99.90
2018-09-21T00:32:27.683Z,99.90
2018-09-21T00:34:57.140Z,99.90
2018-09-21T00:37:26.567Z,99.90
2018-09-21T00:39:56.087Z,99.90
2018-09-21T00:42:25.603Z,99.90
2018-09-21T00:44:55.097Z,99.90
2018-09-21T00:47:24.609Z,99.90
2018-09-21T00:49:54.240Z,99.90
2018-09-21T00:52:23.919Z,99.90
2018-09-21T00:54:53.972Z,99.90
2018-09-21T00:57:23.615Z,99.90
2018-09-21T00:59:53.950Z,99.90
2018-09-21T01:02:24.347Z,99.90
2018-09-21T01:04:55.033Z,99.90
2018-09-21T01:07:25.126Z,99.90
2018-09-21T01:09:54.816Z,99.90
2018-09-21T01:12:24.277Z,99.90
2018-09-21T01:14:53.965Z,99.90
2018-09-21T01:17:23.430Z,99.90
2018-09-21T01:19:52.925Z,99.90
2018-09-21T01:22:22.405Z,99.90
2018-09-21T01:24:51.930Z,99.90
2018-09-21T01:27:21.404Z,99.90
2018-09-21T01:29:50.901Z,99.90
2018-09-21T01:32:20.369Z,99.90
2018-09-21T01:34:49.840Z,99.90
2018-09-21T01:37:19.366Z,99.90
2018-09-21T01:39:48.813Z,99.90
2018-09-21T01:42:18.992Z,99.90
2018-09-21T01:44:48.498Z,99.90
2018-09-21T01:47:17.982Z,99.90
2018-09-21T01:49:47.544Z,99.90
2018-09-21T01:52:17.040Z,99.90
2018-09-21T01:54:46.556Z,99.90
2018-09-21T01:57:16.031Z,99.90
2018-09-21T01:59:45.470Z,99.90
2018-09-21T02:02:14.925Z,99.90
2018-09-21T02:04:44.377Z,99.90
2018-09-21T02:07:13.896Z,99.90
2018-09-21T02:09:43.442Z,99.90
2018-09-21T02:12:12.987Z,99.90
2018-09-21T02:14:42.458Z,99.90
2018-09-21T02:17:11.974Z,99.90
2018-09-21T02:19:41.488Z,99.90
2018-09-21T02:22:10.965Z,99.90
2018-09-21T02:24:40.451Z,99.90
2018-09-21T02:27:10.165Z,99.90
2018-09-21T02:29:39.656Z,99.90
2018-09-21T02:32:09.169Z,99.90
2018-09-21T02:34:38.615Z,99.90
2018-09-21T02:37:08.099Z,99.90
2018-09-21T02:39:37.594Z,99.90
2018-09-21T02:42:07.077Z,99.90
2018-09-21T02:44:36.579Z,99.90
2018-09-21T02:47:06.121Z,99.90
2018-09-21T02:49:35.574Z,99.90
2018-09-21T02:52:05.060Z,99.90
2018-09-21T02:54:41.138Z,99.90
2018-09-21T02:57:10.876Z,99.90
2018-09-21T02:59:40.323Z,99.90
2018-09-21T03:02:09.801Z,99.90
2018-09-21T03:04:44.432Z,99.90
2018-09-21T03:07:13.914Z,99.90
2018-09-21T03:09:43.346Z,99.90
2018-09-21T03:12:12.831Z,99.90
2018-09-21T03:14:42.338Z,99.90
2018-09-21T03:17:11.821Z,99.90
2018-09-21T03:19:41.427Z,99.90
2018-09-21T03:22:10.946Z,99.90
2018-09-21T03:24:40.454Z,99.90
2018-09-21T03:27:09.936Z,99.90
2018-09-21T03:29:39.395Z,99.90
2018-09-21T03:32:08.913Z,99.90
2018-09-21T03:34:38.446Z,99.90
2018-09-21T03:37:07.976Z,99.90
2018-09-21T03:39:37.457Z,99.90
2018-09-21T03:42:07.191Z,99.90
2018-09-21T03:44:36.672Z,99.90
2018-09-21T03:47:06.367Z,99.90
2018-09-21T03:49:35.837Z,99.90
2018-09-21T03:52:05.445Z,99.90
2018-09-21T03:54:34.916Z,99.90
2018-09-21T03:57:04.418Z,99.90
2018-09-21T03:59:33.877Z,99.90
2018-09-21T04:02:03.340Z,99.90
2018-09-21T04:04:32.815Z,99.90
2018-09-21T04:07:02.325Z,99.90
2018-09-21T04:09:31.794Z,99.90
2018-09-21T04:12:01.317Z,99.90
2018-09-21T04:14:37.861Z,99.90
2018-09-21T04:17:07.837Z,99.90
2018-09-21T04:19:37.547Z,99.90
2018-09-21T04:22:07.154Z,99.90
2018-09-21T04:24:36.602Z,99.90
2018-09-21T04:27:06.142Z,99.90
2018-09-21T04:29:35.612Z,99.90
2018-09-21T04:32:05.206Z,99.90
2018-09-21T04:34:34.711Z,99.90
2018-09-21T04:37:04.227Z,99.90
2018-09-21T04:39:33.713Z,99.90
2018-09-21T04:42:03.282Z,99.90
2018-09-21T04:44:32.758Z,99.90
2018-09-21T04:47:02.225Z,99.90
2018-09-21T04:49:32.097Z,99.90
2018-09-21T04:52:01.681Z,99.90
2018-09-21T04:54:31.190Z,99.90
2018-09-21T04:57:00.782Z,99.90
2018-09-21T04:59:30.286Z,99.90
2018-09-21T05:01:59.863Z,99.90
2018-09-21T05:04:29.573Z,99.90
2018-09-21T05:06:59.061Z,99.90
2018-09-21T05:09:28.565Z,99.90
2018-09-21T05:11:58.182Z,99.90
2018-09-21T05:14:27.678Z,99.90
2018-09-21T05:16:57.182Z,99.90
2018-09-21T05:19:26.753Z,99.90
2018-09-21T05:21:56.253Z,99.90
2018-09-21T05:24:25.781Z,99.90
2018-09-21T05:26:55.325Z,99.90
2018-09-21T05:29:24.875Z,99.90
2018-09-21T05:31:54.382Z,99.90
2018-09-21T05:34:23.908Z,99.90
2018-09-21T05:36:53.396Z,99.90
2018-09-21T05:39:22.913Z,99.90
2018-09-21T05:41:52.422Z,99.90
2018-09-21T05:44:21.903Z,99.90
2018-09-21T05:46:51.386Z,99.90
2018-09-21T05:49:20.905Z,99.90
2018-09-21T05:51:50.532Z,99.90
2018-09-21T05:54:20.009Z,99.90
2018-09-21T05:56:49.468Z,99.90
2018-09-21T05:59:18.984Z,99.90
2018-09-21T06:01:48.497Z,99.90
2018-09-21T06:04:17.988Z,99.90
2018-09-21T06:06:47.454Z,99.90
2018-09-21T06:09:17.233Z,99.90
2018-09-21T06:11:46.753Z,99.90
2018-09-21T06:14:16.471Z,99.90
2018-09-21T06:16:46.021Z,99.90
2018-09-21T06:19:15.712Z,99.90
2018-09-21T06:21:45.174Z,99.90
2018-09-21T06:24:14.639Z,99.90
2018-09-21T06:26:44.103Z,99.90
2018-09-21T06:29:13.588Z,99.90
2018-09-21T06:31:43.070Z,99.90
2018-09-21T06:34:12.537Z,99.90
2018-09-21T06:36:42.028Z,99.90
2018-09-21T06:39:12.402Z,99.90
2018-09-21T06:41:41.888Z,99.90
2018-09-21T06:44:11.369Z,99.90
2018-09-21T06:46:40.818Z,99.90
2018-09-21T06:49:10.307Z,99.90
2018-09-21T06:51:39.813Z,99.90
2018-09-21T06:54:09.314Z,99.90
2018-09-21T06:56:38.822Z,99.90
2018-09-21T06:59:08.325Z,99.90
2018-09-21T07:01:37.876Z,99.90
2018-09-21T07:04:07.599Z,99.90
2018-09-21T07:06:37.063Z,99.90
2018-09-21T07:09:11.197Z,99.90
2018-09-21T07:11:41.195Z,99.90
2018-09-21T07:14:11.269Z,99.90
2018-09-21T07:16:40.856Z,99.90
2018-09-21T07:19:10.337Z,99.90
2018-09-21T07:21:39.786Z,99.90
2018-09-21T07:24:09.334Z,99.90
2018-09-21T07:26:38.859Z,99.90
2018-09-21T07:29:08.373Z,99.90
2018-09-21T07:31:37.849Z,99.90
2018-09-21T07:34:07.373Z,99.90
2018-09-21T07:36:36.925Z,99.90
2018-09-21T07:39:08.081Z,99.90
2018-09-21T07:41:37.575Z,99.90
2018-09-21T07:44:07.044Z,99.90
2018-09-21T07:46:36.567Z,99.90
2018-09-21T07:49:06.165Z,99.90
2018-09-21T07:51:35.640Z,99.90
2018-09-21T07:54:05.177Z,99.90
2018-09-21T07:56:34.648Z,99.90
2018-09-21T07:59:04.145Z,99.90
2018-09-21T08:01:33.636Z,99.90
2018-09-21T08:04:03.138Z,99.90
2018-09-21T08:06:32.606Z,99.90
2018-09-21T08:09:02.115Z,99.90
2018-09-21T08:11:31.606Z,99.90
2018-09-21T08:14:01.901Z,99.90
2018-09-21T08:16:31.381Z,99.80
2018-09-21T08:19:00.871Z,99.60
2018-09-21T08:21:30.422Z,99.50
2018-09-21T08:23:59.892Z,99.40
2018-09-21T08:26:29.518Z,99.00
2018-09-21T08:28:58.967Z,98.80
2018-09-21T08:31:28.705Z,98.80
2018-09-21T08:33:58.197Z,98.90
2018-09-21T08:36:27.985Z,98.30
2018-09-21T08:38:57.432Z,98.60
2018-09-21T08:41:26.957Z,97.90
2018-09-21T08:43:56.435Z,97.80
2018-09-21T08:46:25.895Z,97.80
2018-09-21T08:48:55.346Z,98.10
2018-09-21T08:51:24.830Z,98.20
2018-09-21T08:53:54.348Z,98.20
2018-09-21T08:56:23.885Z,98.20
2018-09-21T08:58:53.356Z,98.20
2018-09-21T09:01:22.847Z,98.40
2018-09-21T09:03:52.317Z,98.30
2018-09-21T09:06:21.816Z,97.80
2018-09-21T09:08:51.330Z,97.90
2018-09-21T09:11:20.797Z,97.80
2018-09-21T09:13:50.296Z,97.70
2018-09-21T09:16:19.796Z,97.80
2018-09-21T09:18:49.378Z,97.50
2018-09-21T09:21:18.851Z,96.20
2018-09-21T09:23:48.322Z,96.10
2018-09-21T09:26:17.899Z,96.10
2018-09-21T09:28:47.972Z,95.80
2018-09-21T09:31:17.443Z,95.60
2018-09-21T09:33:47.005Z,95.20
2018-09-21T09:36:16.584Z,95.20
2018-09-21T09:38:46.100Z,94.40
2018-09-21T09:41:15.575Z,93.80
2018-09-21T09:43:45.128Z,93.10
2018-09-21T09:46:14.576Z,92.60
2018-09-21T09:48:44.131Z,92.00
2018-09-21T09:51:13.528Z,91.10
2018-09-21T09:53:43.001Z,90.20
2018-09-21T09:56:12.495Z,89.50
2018-09-21T09:58:42.002Z,87.80
2018-09-21T10:01:11.602Z,86.80
2018-09-21T10:03:41.158Z,88.30
2018-09-21T10:06:10.685Z,88.40
2018-09-21T10:08:40.210Z,87.60
2018-09-21T10:11:09.722Z,87.40
2018-09-21T10:13:39.227Z,88.00
2018-09-21T10:16:08.836Z,86.10
2018-09-21T10:18:38.427Z,84.90
2018-09-21T10:21:07.968Z,81.50
2018-09-21T10:23:37.547Z,81.30
2018-09-21T10:26:07.014Z,77.40
2018-09-21T10:28:36.705Z,75.10
2018-09-21T10:31:05.978Z,71.30
2018-09-21T10:33:35.737Z,69.70
2018-09-21T10:36:05.170Z,68.50
2018-09-21T10:38:34.671Z,68.80
2018-09-21T10:41:04.128Z,68.90
2018-09-21T10:43:33.699Z,68.40
2018-09-21T10:46:03.273Z,68.00
2018-09-21T10:48:32.811Z,67.00
2018-09-21T10:51:02.403Z,66.80
2018-09-21T10:53:31.865Z,66.30
2018-09-21T10:56:01.332Z,66.20
2018-09-21T10:58:30.870Z,66.90
2018-09-21T11:01:00.361Z,66.20
2018-09-21T11:03:29.837Z,66.40
2018-09-21T11:05:59.345Z,66.10
2018-09-21T11:08:28.814Z,66.00
2018-09-21T11:10:58.336Z,66.00
2018-09-21T11:13:27.821Z,66.80
2018-09-21T11:15:57.309Z,67.20
2018-09-21T11:18:26.779Z,67.60
2018-09-21T11:20:56.267Z,67.60
2018-09-21T11:23:25.809Z,67.00
2018-09-21T11:25:55.495Z,67.30
2018-09-21T11:28:24.982Z,67.20
2018-09-21T11:30:54.526Z,67.40
2018-09-21T11:33:24.067Z,67.80
2018-09-21T11:35:53.644Z,68.20
2018-09-21T11:38:23.180Z,68.90
2018-09-21T11:40:59.423Z,69.70
2018-09-21T11:43:28.904Z,70.80
2018-09-21T11:45:58.413Z,71.40
2018-09-21T11:48:27.925Z,72.00
2018-09-21T11:50:57.496Z,72.30
2018-09-21T11:53:27.046Z,73.40
2018-09-21T11:55:56.622Z,74.40
2018-09-21T11:58:26.127Z,74.60
2018-09-21T12:00:55.730Z,75.50
2018-09-21T12:03:25.185Z,76.60
2018-09-21T12:05:54.783Z,77.80
2018-09-21T12:08:24.297Z,79.30
2018-09-21T12:10:53.788Z,82.90
2018-09-21T12:13:23.374Z,84.60
2018-09-21T12:15:52.901Z,86.20
2018-09-21T12:18:22.424Z,87.70
2018-09-21T12:20:51.921Z,90.10
2018-09-21T12:23:21.442Z,91.10
2018-09-21T12:25:50.942Z,91.20
2018-09-21T12:28:20.443Z,92.60
2018-09-21T12:30:49.937Z,94.10
2018-09-21T12:33:19.465Z,95.40
2018-09-21T12:35:49.037Z,97.40
2018-09-21T12:38:18.529Z,97.70
2018-09-21T12:40:48.277Z,98.60
2018-09-21T12:43:17.813Z,98.30
2018-09-21T12:45:47.528Z,99.90
2018-09-21T12:48:17.084Z,99.90
2018-09-21T12:50:46.719Z,99.90
2018-09-21T12:53:16.230Z,99.90
2018-09-21T12:55:45.988Z,99.90
2018-09-21T12:58:15.647Z,99.90
2018-09-21T13:00:51.000Z,99.90
2018-09-21T13:03:21.786Z,99.90
2018-09-21T13:05:56.396Z,99.90
2018-09-21T13:08:26.916Z,99.90
2018-09-21T13:10:56.596Z,99.90
2018-09-21T13:13:26.076Z,99.90
2018-09-21T13:15:55.610Z,99.90
2018-09-21T13:18:25.115Z,99.90
2018-09-21T13:20:54.681Z,99.90
2018-09-21T13:23:24.180Z,99.90
2018-09-21T13:25:53.672Z,99.90
2018-09-21T13:28:23.159Z,99.90
2018-09-21T13:30:52.650Z,99.90
2018-09-21T13:33:22.150Z,99.90
2018-09-21T13:35:51.801Z,99.90
2018-09-21T13:38:21.276Z,99.90
2018-09-21T13:40:51.148Z,99.90
2018-09-21T13:43:20.624Z,99.90
2018-09-21T13:45:50.175Z,99.90
2018-09-21T13:48:19.664Z,99.90
2018-09-21T13:50:49.227Z,99.90
2018-09-21T13:53:18.673Z,99.90
2018-09-21T13:55:48.200Z,99.90
2018-09-21T13:58:17.709Z,99.90
2018-09-21T14:00:47.275Z,99.90
2018-09-21T14:03:16.832Z,99.90
2018-09-21T14:05:46.339Z,99.90
2018-09-21T14:08:15.835Z,99.90
2018-09-21T14:10:45.409Z,99.90
2018-09-21T14:13:14.936Z,99.90
2018-09-21T14:15:44.458Z,99.90
2018-09-21T14:18:13.922Z,99.90
2018-09-21T14:20:43.413Z,99.90
2018-09-21T14:23:12.940Z,99.90
2018-09-21T14:25:42.497Z,99.90
2018-09-21T14:28:12.061Z,99.90
2018-09-21T14:30:41.575Z,99.90
2018-09-21T14:33:11.137Z,99.90
2018-09-21T14:35:40.661Z,99.90
2018-09-21T14:38:10.205Z,99.90
2018-09-21T14:40:39.711Z,99.90
2018-09-21T14:43:09.359Z,99.90
2018-09-21T14:45:38.867Z,99.90
2018-09-21T14:48:08.434Z,99.90
2018-09-21T14:50:37.931Z,99.90
2018-09-21T14:53:07.452Z,99.90
2018-09-21T14:55:36.970Z,99.90
2018-09-21T14:58:06.535Z,99.90
2018-09-21T15:00:36.034Z,99.90
2018-09-21T15:03:05.578Z,99.90
2018-09-21T15:05:35.184Z,99.90
2018-09-21T15:08:04.701Z,99.90
2018-09-21T15:10:34.215Z,99.90
2018-09-21T15:13:03.752Z,99.90
2018-09-21T15:15:33.379Z,99.90
2018-09-21T15:18:03.117Z,99.40
2018-09-21T15:20:32.630Z,99.90
2018-09-21T15:23:02.130Z,99.90
2018-09-21T15:25:31.593Z,99.90
2018-09-21T15:28:01.150Z,99.10
2018-09-21T15:30:30.780Z,99.90
2018-09-21T15:33:00.321Z,99.80
2018-09-21T15:35:29.858Z,99.90
2018-09-21T15:37:59.523Z,99.80
2018-09-21T15:40:29.080Z,99.90
2018-09-21T15:42:58.924Z,99.90
2018-09-21T15:45:28.389Z,99.90
2018-09-21T15:47:58.069Z,99.90
2018-09-21T15:50:27.545Z,99.90
2018-09-21T15:52:57.338Z,99.90
2018-09-21T15:55:27.033Z,99.90
2018-09-21T15:57:56.613Z,99.90
2018-09-21T16:00:26.141Z,99.90
2018-09-21T16:02:55.712Z,99.90
2018-09-21T16:05:25.168Z,99.30
2018-09-21T16:07:54.714Z,99.40
2018-09-21T16:10:24.216Z,99.90
2018-09-21T16:12:53.733Z,99.60
2018-09-21T16:15:23.294Z,97.00
2018-09-21T16:17:52.810Z,96.50
2018-09-21T16:20:22.363Z,96.20
2018-09-21T16:22:51.872Z,98.00
2018-09-21T16:25:21.510Z,98.40
2018-09-21T16:27:51.102Z,99.90
2018-09-21T16:30:20.608Z,99.90
2018-09-21T16:32:50.133Z,96.60
2018-09-21T16:35:19.739Z,95.30
2018-09-21T16:37:49.333Z,94.60
2018-09-21T16:40:18.868Z,96.00
2018-09-21T16:42:48.397Z,97.10
2018-09-21T16:45:17.985Z,98.30
2018-09-21T16:47:47.507Z,97.40
2018-09-21T16:50:17.105Z,94.20
2018-09-21T16:52:46.644Z,94.70
2018-09-21T16:55:16.171Z,96.70
2018-09-21T16:57:45.713Z,99.00
2018-09-21T17:00:15.131Z,99.00
2018-09-21T17:02:44.613Z,99.90
2018-09-21T17:05:14.341Z,97.10
2018-09-21T17:07:43.841Z,99.30
2018-09-21T17:10:13.445Z,99.90
2018-09-21T17:12:42.980Z,99.90
2018-09-21T17:15:12.526Z,99.90
2018-09-21T17:17:42.056Z,96.50
2018-09-21T17:20:11.638Z,99.90
2018-09-21T17:22:41.089Z,97.30
2018-09-21T17:25:10.675Z,88.60
2018-09-21T17:27:40.229Z,96.10
2018-09-21T17:30:09.823Z,97.00
2018-09-21T17:32:39.345Z,99.50
2018-09-21T17:35:09.108Z,99.90
2018-09-21T17:37:38.607Z,93.30
2018-09-21T17:40:08.161Z,98.50
2018-09-21T17:42:43.942Z,99.00
2018-09-21T17:45:13.460Z,95.80
2018-09-21T17:47:43.830Z,98.60
2018-09-21T17:50:13.387Z,98.80
2018-09-21T17:52:42.984Z,98.30
2018-09-21T17:55:12.430Z,96.80
2018-09-21T17:57:41.938Z,92.50
2018-09-21T18:00:11.577Z,93.30
2018-09-21T18:02:41.110Z,94.00
2018-09-21T18:05:10.727Z,98.00
2018-09-21T18:07:40.272Z,99.50
2018-09-21T18:10:10.137Z,99.90
2018-09-21T18:12:39.613Z,99.90
2018-09-21T18:15:09.246Z,99.90
2018-09-21T18:17:38.788Z,99.90
2018-09-21T18:20:08.573Z,99.90
2018-09-21T18:22:38.125Z,99.90
2018-09-21T18:25:08.452Z,99.90
2018-09-21T18:27:38.004Z,99.90
2018-09-21T18:30:07.862Z,99.90
2018-09-21T18:32:37.373Z,99.90
2018-09-21T18:35:07.006Z,99.90
2018-09-21T18:37:36.858Z,99.90
2018-09-21T18:40:06.543Z,99.90
2018-09-21T18:42:36.061Z,99.90
2018-09-21T18:45:05.712Z,99.90
2018-09-21T18:47:35.227Z,99.90
2018-09-21T18:50:04.881Z,99.90
2018-09-21T18:52:34.449Z,99.90
2018-09-21T18:55:04.147Z,99.90
2018-09-21T18:57:33.638Z,99.90
2018-09-21T19:00:03.500Z,99.90
2018-09-21T19:02:33.331Z,99.90
2018-09-21T19:05:02.939Z,99.90
2018-09-21T19:07:32.838Z,99.90
2018-09-21T19:10:02.706Z,99.90
2018-09-21T19:12:32.308Z,99.90
2018-09-21T19:15:02.640Z,99.90
2018-09-21T19:17:32.444Z,99.90
2018-09-21T19:20:02.150Z,99.90
2018-09-21T19:22:31.938Z,99.90
2018-09-21T19:25:01.789Z,99.90
2018-09-21T19:27:31.716Z,99.90
2018-09-21T19:30:01.540Z,99.90
2018-09-21T19:32:31.469Z,99.90
2018-09-21T19:35:01.320Z,99.90
2018-09-21T19:37:31.203Z,99.90
2018-09-21T19:40:01.072Z,99.90
2018-09-21T19:42:30.822Z,99.90
2018-09-21T19:45:00.479Z,99.90
2018-09-21T19:47:29.968Z,99.90
2018-09-21T19:49:59.501Z,99.90
2018-09-21T19:52:29.031Z,99.90
2018-09-21T19:54:58.614Z,99.90
2018-09-21T19:57:28.192Z,99.90
2018-09-21T19:59:57.782Z,99.90
2018-09-21T20:02:27.330Z,99.90
2018-09-21T20:04:56.900Z,99.90
2018-09-21T20:07:26.388Z,99.90
2018-09-21T20:09:56.002Z,99.90
2018-09-21T20:12:25.495Z,99.90
2018-09-21T20:14:55.008Z,99.90
2018-09-21T20:17:24.616Z,99.90
2018-09-21T20:19:54.198Z,99.90
2018-09-21T20:22:23.835Z,99.90
2018-09-21T20:24:53.343Z,99.90
2018-09-21T20:27:22.845Z,97.40
2018-09-21T20:29:56.458Z,97.70
2018-09-21T20:32:31.178Z,98.40
2018-09-21T20:35:00.769Z,95.00
2018-09-21T20:37:30.433Z,96.00
2018-09-21T20:39:59.968Z,97.50
2018-09-21T20:42:29.637Z,98.60
2018-09-21T20:44:59.213Z,99.90
2018-09-21T20:47:28.828Z,96.80
2018-09-21T20:49:58.360Z,91.80
2018-09-21T20:52:27.918Z,93.70
2018-09-21T20:54:57.449Z,93.40
2018-09-21T20:57:26.974Z,92.20
2018-09-21T20:59:56.527Z,91.40
2018-09-21T21:02:26.214Z,90.50
2018-09-21T21:04:55.701Z,87.00
2018-09-21T21:07:25.217Z,85.70
2018-09-21T21:09:54.757Z,84.60
2018-09-21T21:12:24.302Z,83.90
2018-09-21T21:14:53.990Z,83.10
2018-09-21T21:17:23.678Z,83.20
2018-09-21T21:19:53.159Z,83.90
2018-09-21T21:22:23.705Z,81.20
2018-09-21T21:24:53.213Z,82.80
2018-09-21T21:27:22.979Z,82.60
2018-09-21T21:29:52.622Z,82.10
2018-09-21T21:32:22.366Z,82.40
2018-09-21T21:34:51.864Z,81.80
2018-09-21T21:37:21.471Z,81.00
2018-09-21T21:39:50.997Z,82.20
2018-09-21T21:42:20.496Z,82.20
2018-09-21T21:44:50.029Z,81.30
2018-09-21T21:47:19.509Z,81.00
2018-09-21T21:49:48.974Z,81.30
2018-09-21T21:52:18.474Z,81.40
2018-09-21T21:54:47.957Z,82.50
2018-09-21T21:57:17.513Z,81.00
2018-09-21T21:59:46.991Z,80.70
2018-09-21T22:02:16.511Z,81.50
2018-09-21T22:04:46.015Z,82.00
2018-09-21T22:07:15.548Z,81.00
2018-09-21T22:09:45.063Z,81.70
2018-09-21T22:12:19.659Z,81.10
2018-09-21T22:14:49.186Z,81.30
2018-09-21T22:17:18.744Z,81.80
2018-09-21T22:19:48.332Z,82.20
2018-09-21T22:22:17.846Z,81.90
2018-09-21T22:24:47.357Z,81.70
2018-09-21T22:27:16.867Z,82.20
2018-09-21T22:29:46.381Z,82.80
2018-09-21T22:32:15.910Z,82.50
2018-09-21T22:34:45.415Z,81.90
2018-09-21T22:37:14.903Z,81.80
2018-09-21T22:39:44.474Z,82.00
2018-09-21T22:42:14.023Z,83.90
2018-09-21T22:44:43.541Z,83.70
2018-09-21T22:47:13.064Z,81.60
2018-09-21T22:49:42.524Z,81.50
2018-09-21T22:52:18.544Z,82.20
2018-09-21T22:54:48.045Z,83.40
2018-09-21T22:57:17.511Z,81.60
2018-09-21T22:59:47.025Z,82.90
2018-09-21T23:02:16.501Z,81.60
2018-09-21T23:04:46.090Z,81.80
2018-09-21T23:07:15.529Z,81.30
2018-09-21T23:09:45.000Z,83.10
2018-09-21T23:12:14.511Z,82.40
2018-09-21T23:14:44.010Z,83.90
2018-09-21T23:17:13.442Z,82.70
2018-09-21T23:19:42.899Z,82.40
2018-09-21T23:22:12.445Z,82.20
2018-09-21T23:24:41.836Z,81.70
2018-09-21T23:27:11.326Z,82.00
2018-09-21T23:29:40.865Z,82.50
2018-09-21T23:32:17.078Z,82.10
2018-09-21T23:34:46.551Z,82.40
2018-09-21T23:37:16.026Z,82.10
2018-09-21T23:39:45.506Z,82.00
2018-09-21T23:42:15.043Z,83.70
2018-09-21T23:44:44.477Z,82.10
2018-09-21T23:47:13.931Z,82.90
2018-09-21T23:49:43.446Z,82.70
2018-09-21T23:52:12.979Z,83.00
2018-09-21T23:54:42.453Z,82.40
2018-09-21T23:57:11.994Z,83.80
2018-09-21T23:59:41.542Z,83.30
